Flight Track Log - Related Links

Times and Time Zones

All times are in EDT time to prevent confusion due to time zone crossing. See the N449ND flight status page for this flight to view local times or setup timezone preferences in your user account.


Time Position Orientation Groundspeed Altitude Reporting Facility
EDT Latitude Longitude Course Direction KTS MPH feet Rate Location/Type
Wed 04:33:42 PM 27.4961 -80.3592 152° Southeast 90 104 500  Level Miami Center
Wed 04:34:42 PM 27.4711 -80.3586 179° South 68 78 1,000 550 Climbing Miami Center
Wed 04:35:42 PM 27.4439 -80.3625 187° South 94 108 1,600 500 Climbing Miami Center
Wed 04:36:42 PM 27.4208 -80.3686 193° South 108 124 2,000 500 Climbing Miami Center
Wed 04:37:42 PM 27.4056 -80.3939 236° Southwest 92 106 2,600 600 Climbing Miami Center
Wed 04:38:42 PM 27.4006 -80.4264 260° West 98 113 3,200 550 Climbing Miami Center
Wed 04:39:00 PM 27.4975 -80.3726 152° Southeast  Level Estimated
Wed 04:39:42 PM 27.3956 -80.4567 259° West 104 120 3,700  Level Miami Center
Wed 04:40:42 PM 27.3969 -80.4825 273° West 104 120 4,000 200 Climbing Miami Center
Wed 04:41:42 PM 27.4219 -80.4833 358° North 75 86 4,100  Climbing Miami Center
Wed 04:42:42 PM 27.4511 -80.4867 354° North 97 112 4,000 -100 Descending Miami Center
Wed 04:43:42 PM 27.4783 -80.4850 North 102 117 3,900  Descending Miami Center
Wed 04:44:42 PM 27.5033 -80.4858 358° North 102 117 4,000 50 Climbing Miami Center
Wed 04:45:42 PM 27.5306 -80.4892 354° North 97 112 4,000  Level Miami Center
Wed 04:46:42 PM 27.5533 -80.4897 359° North 97 112 4,000 -100 Level Miami Center
Wed 04:47:42 PM 27.5631 -80.5206 290° West 81 93 3,800 -300 Descending Miami Center
Wed 04:48:42 PM 27.5747 -80.5514 293° West 104 120 3,400 -400 Descending Miami Center
Wed 04:49:42 PM 27.5908 -80.5800 302° West 109 125 3,000 -200 Descending Miami Center
Wed 04:50:42 PM 27.6111 -80.5972 323° Northwest 109 125 3,000 50 Level Miami Center
Wed 04:51:42 PM 27.6358 -80.6119 332° Northwest 104 120 3,100  Climbing Miami Center
Wed 04:52:42 PM 27.6650 -80.6200 346° North 94 108 3,000  Descending Miami Center
Wed 04:53:42 PM 27.6919 -80.6208 358° North 89 102 3,100  Climbing Miami Center
Wed 04:54:42 PM 27.7111 -80.6097 27° Northeast 83 96 3,000 -150 Descending Miami Center
Wed 04:55:42 PM 27.7097 -80.5839 93° East 67 77 2,800 -750 Descending Miami Center
Wed 04:57:06 PM 27.6961 -80.5414 110° East 94 108 1,200 -667 Descending Miami Center
Wed 04:58:06 PM 27.6883 -80.5175 110° East 94 108 1,200  Level Miami Center
Wed 04:59:06 PM 27.6786 -80.4939 115° Southeast 94 108 1,200 -200 Level Miami Center
Wed 05:00:06 PM 27.6708 -80.4678 109° East 84 97 800 -450 Descending Miami Center
Wed 05:01:06 PM 27.6631 -80.4464 112° Southeast 79 91 300 -150 Descending Miami Center
Wed 05:02:06 PM 27.6553 -80.4250 112° Southeast 74 85 500 400 Climbing Miami Center
Wed 05:03:06 PM 27.6494 -80.4061 109° East 74 85 1,100 550 Climbing Miami Center
Wed 05:04:06 PM 27.6417 -80.3825 110° East 74 85 1,600 600 Climbing Miami Center
Wed 05:05:06 PM 27.6317 -80.3611 118° Southeast 74 85 2,300 600 Climbing Miami Center
Wed 05:06:06 PM 27.6261 -80.3375 105° East 74 85 2,800 400 Climbing Miami Center
Wed 05:07:06 PM 27.6139 -80.3206 129° Southeast 74 85 3,100 50 Climbing Miami Center
Wed 05:08:06 PM 27.5925 -80.3481 229° Southwest 82 94 2,900 -50 Descending Miami Center
Wed 05:09:06 PM 27.5853 -80.3808 256° West 108 124 3,000 50 Climbing Miami Center
Wed 05:10:06 PM 27.5864 -80.4206 272° West 124 143 3,000 50 Level Miami Center
Wed 05:11:06 PM 27.5794 -80.4556 257° West 124 143 3,100  Climbing Miami Center
Wed 05:12:06 PM 27.5825 -80.4908 276° West 124 143 3,000 -50 Descending Miami Center
Wed 05:13:06 PM 27.5817 -80.5236 268° West 117 135 3,000  Level Miami Center
Wed 05:14:06 PM 27.5828 -80.5611 272° West 122 140 3,000  Level Miami Center
Wed 05:15:06 PM 27.5819 -80.5986 269° West 122 140 3,000  Level Miami Center
Wed 05:16:06 PM 27.5981 -80.6178 313° West 98 113 3,000  Level Miami Center
Wed 05:17:06 PM 27.6211 -80.6139 North 79 91 3,000 50 Level Miami Center
Wed 05:18:06 PM 27.6217 -80.5997 87° East 54 62 3,100  Climbing Miami Center
Wed 05:19:06 PM 27.5906 -80.5942 171° South 90 104 3,000 -50 Descending Miami Center
Wed 05:20:06 PM 27.5672 -80.6050 202° Southwest 96 110 3,000  Level Miami Center
Wed 05:21:06 PM 27.5875 -80.6222 323° Northwest 58 67 3,000  Level Miami Center
Wed 05:22:06 PM 27.6106 -80.6253 353° North 61 70 3,000 50 Level Miami Center
Wed 05:23:06 PM 27.6172 -80.6067 68° East 66 76 3,100  Climbing Miami Center
Wed 05:24:06 PM 27.5861 -80.5964 164° South 74 85 3,000 -50 Descending Miami Center
Wed 05:25:06 PM 27.5592 -80.5931 174° South 105 121 3,000 -150 Level Miami Center
Wed 05:26:06 PM 27.5278 -80.5944 182° South 110 127 2,700 -450 Descending Miami Center
Wed 05:27:06 PM 27.5028 -80.5889 169° South 105 121 2,100 -450 Descending Miami Center
Wed 05:28:06 PM 27.5014 -80.5656 94° East 72 83 1,800 -150 Descending Miami Center
Wed 05:29:06 PM 27.5000 -80.5372 93° East 82 94 1,800  Level Miami Center
Wed 05:30:18 PM 27.4986 -80.5069 93° East 88 101 1,800  Level Miami Center
Wed 05:31:18 PM 27.4992 -80.4858 88° East 78 90 1,800 -200 Level Miami Center
Wed 05:32:18 PM 27.4978 -80.4600 93° East 73 84 1,400 -450 Descending Miami Center
Wed 05:33:18 PM 27.4964 -80.4342 93° East 73 84 900 -450 Descending Miami Center
Wed 05:34:18 PM 27.4969 -80.4108 88° East 68 78 500 -250 Descending Miami Center
Wed 05:35:18 PM 27.4975 -80.3897 88° East 68 78 400 100 Descending Miami Center
Wed 05:36:18 PM 27.4939 -80.3686 101° East 68 78 700 800 Climbing Miami Center
Wed 05:37:18 PM 27.4644 -80.3700 182° South 68 78 2,000 650 Climbing Miami Center
Wed 05:38:18 PM 27.4411 -80.3833 207° Southwest 91 105 2,000  Level Miami Center
Wed 05:39:18 PM 27.4319 -80.4206 255° West 110 127 2,000  Level Miami Center
Wed 05:40:18 PM 27.4250 -80.4531 256° West 125 144 2,000  Level Miami Center
Wed 05:41:18 PM 27.4200 -80.4856 260° West 125 144 2,000  Level Miami Center
Wed 05:42:18 PM 27.4128 -80.5228 258° West 120 138 2,000  Level Miami Center
Wed 05:43:18 PM 27.4075 -80.5600 261° West 120 138 2,000  Level Miami Center
Wed 05:44:18 PM 27.4153 -80.5883 287° West 108 124 2,000  Level Miami Center
Wed 05:45:18 PM 27.4381 -80.5939 348° North 77 89 2,000  Level Miami Center
Wed 05:46:18 PM 27.4669 -80.6042 342° North 91 105 2,000  Level Miami Center
Wed 05:47:18 PM 27.4839 -80.5953 25° Northeast 77 89 2,000  Level Miami Center
Wed 05:48:18 PM 27.4950 -80.5747 59° Northeast 66 76 2,000 -50 Level Miami Center
Wed 05:49:18 PM 27.4975 -80.5514 83° East 71 82 1,900 -100 Descending Miami Center
Wed 05:50:18 PM 27.4983 -80.5256 88° East 77 89 1,800 -50 Descending Miami Center
Wed 05:51:18 PM 27.4989 -80.4975 89° East 77 89 1,800  Level Miami Center
Wed 05:52:18 PM 27.4975 -80.4717 93° East 82 94 1,800 -300 Level Miami Center
Wed 05:53:18 PM 27.4981 -80.4458 89° East 88 101 1,200 -500 Descending Miami Center
Wed 05:54:18 PM 27.4986 -80.4272 88° East 82 94 800 -350 Descending Miami Center
Wed 05:55:18 PM 27.4972 -80.4039 94° East 71 82 500 -350 Descending Miami Center
Wed 05:56:18 PM 27.4975 -80.3828 89° East 66 76 100 -400 Descending Miami Center

Login

Don't have an account? Register now (free) for customized features, flight alerts, and more!